Time;durP1;ratioP1;P1;durP2;ratioP2;P2;SDS_P1;SDS_P2;PMS_P1;PMS_P2;Temp;Humidity;BMP_temperature;BMP_pressure;BME280_temperature;BME280_humidity;BME280_pressure;Samples;Min_cycle;Max_cycle;Signal;HPM_P1;HPM_P2
2021/05/28 00:09:40;;;;;;;3.87;2.63;;;8.00;99.90;;;;;;20809472;28;20071;-79
2021/05/28 00:19:41;;;;;;;4.13;1.77;;;7.40;99.90;;;;;;20845250;28;20045;-80
2021/05/28 00:29:42;;;;;;;3.70;1.83;;;7.40;99.90;;;;;;20845779;28;20555;-79
2021/05/28 00:39:44;;;;;;;3.50;1.93;;;7.50;99.90;;;;;;20830420;28;20026;-79
2021/05/28 00:49:45;;;;;;;3.33;2.22;;;7.60;99.90;;;;;;20850523;28;20112;-80
2021/05/28 00:59:48;;;;;;;4.47;1.97;;;7.80;99.90;;;;;;20857794;28;20044;-78
2021/05/28 01:09:49;;;;;;;2.63;1.63;;;7.60;99.90;;;;;;20858023;28;20029;-80
2021/05/28 01:19:50;;;;;;;3.70;1.70;;;7.40;99.90;;;;;;20847018;28;20437;-79
2021/05/28 01:29:51;;;;;;;7.33;2.30;;;7.50;99.90;;;;;;20873294;28;20067;-78
2021/05/28 01:39:53;;;;;;;8.17;3.97;;;7.40;99.90;;;;;;20850284;28;20506;-79
2021/05/28 01:49:53;;;;;;;5.90;2.50;;;7.50;99.90;;;;;;20844164;28;20036;-79
2021/05/28 01:59:54;;;;;;;5.33;1.87;;;7.40;99.90;;;;;;20815707;28;20038;-80
2021/05/28 02:09:55;;;;;;;4.53;1.80;;;7.30;99.90;;;;;;20815804;28;20030;-81
2021/05/28 02:19:56;;;;;;;1.83;1.33;;;7.20;99.90;;;;;;20842808;28;20051;-81
2021/05/28 02:29:57;;;;;;;1.87;1.30;;;7.10;99.90;;;;;;20854837;28;20575;-79
2021/05/28 02:39:58;;;;;;;5.77;2.00;;;7.10;99.90;;;;;;20866461;28;20141;-80
2021/05/28 02:49:59;;;;;;;2.70;1.90;;;6.90;99.90;;;;;;20868434;28;20511;-79
2021/05/28 03:00:00;;;;;;;4.10;2.43;;;6.20;99.90;;;;;;20872498;28;20075;-79
2021/05/28 03:10:01;;;;;;;7.30;3.97;;;5.90;99.90;;;;;;20852418;28;20033;-80
2021/05/28 03:20:04;;;;;;;3.63;2.47;;;6.40;99.90;;;;;;20863626;28;20032;-80
2021/05/28 03:30:09;;;;;;;3.25;2.30;;;6.30;99.90;;;;;;20847902;28;20029;-80
2021/05/28 03:40:11;;;;;;;5.90;3.20;;;6.20;99.90;;;;;;20832021;28;20048;-79
2021/05/28 03:50:12;;;;;;;5.05;3.63;;;6.40;99.90;;;;;;20835364;28;20037;-79
2021/05/28 04:00:14;;;;;;;4.90;3.47;;;6.40;99.90;;;;;;20851582;28;20032;-81
2021/05/28 04:10:17;;;;;;;8.55;5.07;;;6.30;99.90;;;;;;20819750;28;20045;-79
2021/05/28 04:20:18;;;;;;;8.23;5.70;;;6.30;99.90;;;;;;20849622;28;20518;-81
2021/05/28 04:30:23;;;;;;;9.40;4.60;;;6.50;99.90;;;;;;20845776;28;20279;-81
2021/05/28 04:40:26;;;;;;;6.65;4.38;;;6.60;99.90;;;;;;20828748;28;20037;-80
2021/05/28 04:50:31;;;;;;;7.15;4.07;;;6.80;99.90;;;;;;20827918;28;20404;-80
2021/05/28 05:00:32;;;;;;;5.82;3.72;;;7.00;99.90;;;;;;20831627;28;20049;-81
2021/05/28 05:10:33;;;;;;;8.75;3.50;;;7.30;99.90;;;;;;20844006;28;20038;-80
2021/05/28 05:20:36;;;;;;;6.37;3.80;;;7.60;99.90;;;;;;20821865;28;20026;-81
2021/05/28 05:30:37;;;;;;;8.65;3.60;;;8.10;99.90;;;;;;20819955;28;20040;-80
2021/05/28 05:40:38;;;;;;;5.87;3.70;;;8.40;99.90;;;;;;20803135;28;20037;-80
2021/05/28 05:50:39;;;;;;;;;;;8.80;99.90;;;;;;20820514;28;20056;-79
2021/05/28 06:00:40;;;;;;;5.20;3.07;;;9.60;99.90;;;;;;20815154;28;20474;-79
2021/05/28 06:10:41;;;;;;;3.50;2.17;;;10.10;99.90;;;;;;20829531;28;20786;-76
2021/05/28 06:20:42;;;;;;;4.10;2.27;;;10.90;99.90;;;;;;20826121;28;20037;-78
2021/05/28 06:30:43;;;;;;;6.40;2.30;;;11.50;99.90;;;;;;20808010;28;20029;-76
2021/05/28 06:40:44;;;;;;;4.20;2.22;;;11.60;99.90;;;;;;20811632;28;20053;-81
2021/05/28 06:50:45;;;;;;;6.30;1.90;;;12.00;99.90;;;;;;20814945;28;20038;-79
2021/05/28 07:00:46;;;;;;;4.50;1.83;;;12.30;99.90;;;;;;20823165;28;20030;-78
2021/05/28 07:10:47;;;;;;;2.80;1.73;;;13.00;99.90;;;;;;20779709;28;20034;-78
2021/05/28 07:20:48;;;;;;;2.43;1.87;;;13.60;99.90;;;;;;20736862;28;20029;-76
2021/05/28 07:30:49;;;;;;;4.70;1.83;;;13.30;99.90;;;;;;20753727;28;20030;-76
2021/05/28 07:40:52;;;;;;;5.23;2.07;;;14.00;99.90;;;;;;20735076;28;20037;-76
2021/05/28 07:50:58;;;;;;;3.85;1.70;;;15.80;99.90;;;;;;20715390;28;20033;-75
2021/05/28 08:00:59;;;;;;;2.58;1.40;;;16.50;99.90;;;;;;20750906;28;20042;-75
2021/05/28 08:11:00;;;;;;;5.33;1.40;;;17.20;99.90;;;;;;20756025;28;20030;-75
2021/05/28 08:21:01;;;;;;;2.07;1.67;;;17.90;99.90;;;;;;20711404;28;20045;-75
2021/05/28 08:31:07;;;;;;;2.10;1.35;;;18.40;99.90;;;;;;20773013;28;20522;-75
2021/05/28 08:41:10;;;;;;;2.25;1.30;;;18.00;99.90;;;;;;20809602;28;20052;-75
2021/05/28 08:51:10;;;;;;;5.43;2.00;;;18.70;99.90;;;;;;20809129;28;20025;-75
2021/05/28 09:01:12;;;;;;;2.37;1.07;;;19.30;99.90;;;;;;20783226;28;20091;-74
2021/05/28 09:11:17;;;;;;;7.15;2.05;;;18.50;99.90;;;;;;20789620;28;20044;-75
2021/05/28 09:21:24;;;;;;;1.13;0.80;;;19.90;99.90;;;;;;20805792;28;20034;-74
2021/05/28 09:31:28;;;;;;;2.97;1.10;;;20.20;99.90;;;;;;20805364;28;20552;-75
2021/05/28 09:41:53;;;;;;;3.38;0.98;;;19.60;99.90;;;;;;20805319;28;20133;-75
2021/05/28 09:52:18;;;;;;;6.30;1.10;;;20.30;99.90;;;;;;20804847;28;20033;-75
2021/05/28 10:02:35;;;;;;;1.92;1.00;;;20.70;99.90;;;;;;20785517;28;20030;-75
2021/05/28 10:12:36;;;;;;;2.50;0.95;;;20.70;99.90;;;;;;20722775;28;20030;-75
2021/05/28 10:22:38;;;;;;;1.67;0.93;;;21.00;99.90;;;;;;20756540;28;20044;-76
2021/05/28 10:32:39;;;;;;;1.20;0.70;;;21.10;99.90;;;;;;20783798;28;20040;-76
2021/05/28 10:43:19;;;;;;;3.83;1.80;;;21.40;99.90;;;;;;20715241;28;20042;-76
2021/05/28 10:53:20;;;;;;;2.83;0.90;;;21.80;99.90;;;;;;20725338;28;20416;-77
2021/05/28 11:03:21;;;;;;;1.13;0.63;;;22.30;99.90;;;;;;20741590;28;20029;-75
2021/05/28 11:13:22;;;;;;;1.93;1.27;;;22.70;99.90;;;;;;20735306;28;20036;-75
2021/05/28 11:23:23;;;;;;;3.87;0.77;;;23.10;99.90;;;;;;20775858;28;20045;-76
2021/05/28 11:33:33;;;;;;;1.50;1.08;;;22.70;99.90;;;;;;20789684;28;20034;-75
2021/05/28 11:43:37;;;;;;;1.15;0.80;;;20.60;99.90;;;;;;20767376;28;20034;-78
2021/05/28 11:53:38;;;;;;;2.72;1.05;;;22.40;99.90;;;;;;20753143;28;20105;-78
2021/05/28 12:03:39;;;;;;;5.47;0.80;;;23.00;99.90;;;;;;20734774;28;20040;-77
2021/05/28 12:13:41;;;;;;;1.03;0.93;;;22.30;99.90;;;;;;20746877;28;20097;-77
2021/05/28 12:23:42;;;;;;;2.08;0.90;;;22.80;99.90;;;;;;20834178;28;20535;-77
2021/05/28 12:33:52;;;;;;;3.08;1.08;;;22.10;99.90;;;;;;20836953;28;20040;-78
2021/05/28 12:43:55;;;;;;;1.73;0.90;;;21.80;99.90;;;;;;20817238;28;20513;-78
2021/05/28 12:53:57;;;;;;;1.52;1.00;;;23.30;99.90;;;;;;20824195;28;20040;-78
2021/05/28 13:04:03;;;;;;;2.67;1.10;;;23.10;99.90;;;;;;20841607;28;20116;-78
2021/05/28 13:14:04;;;;;;;2.25;1.05;;;23.70;99.90;;;;;;20807586;28;20097;-78
2021/05/28 13:24:05;;;;;;;6.87;1.67;;;23.00;99.90;;;;;;20825918;28;20029;-78
2021/05/28 13:34:08;;;;;;;3.90;0.90;;;24.40;99.90;;;;;;20839525;28;20032;-80
2021/05/28 13:44:11;;;;;;;2.33;0.60;;;24.10;99.90;;;;;;20822768;28;20518;-80
2021/05/28 13:54:14;;;;;;;2.58;0.80;;;23.30;99.90;;;;;;20837013;28;20045;-80
2021/05/28 14:04:15;;;;;;;1.77;0.85;;;23.90;99.90;;;;;;20836628;28;20104;-79
2021/05/28 14:14:16;;;;;;;1.77;0.80;;;24.70;99.90;;;;;;20840060;28;20033;-78
2021/05/28 14:24:17;;;;;;;1.58;0.70;;;24.70;97.90;;;;;;20855249;28;20064;-80
2021/05/28 14:34:18;;;;;;;1.70;0.80;;;24.80;97.20;;;;;;20835815;28;20041;-80
2021/05/28 14:44:19;;;;;;;0.83;0.60;;;24.70;95.10;;;;;;20818568;28;20039;-80
2021/05/28 14:54:20;;;;;;;2.60;0.80;;;22.90;97.70;;;;;;20852480;28;20350;-79
2021/05/28 15:04:21;;;;;;;1.97;0.90;;;23.70;99.90;;;;;;20852815;28;20108;-79
2021/05/28 15:14:22;;;;;;;2.53;0.90;;;24.00;97.20;;;;;;20833447;28;20025;-78
2021/05/28 15:24:23;;;;;;;3.77;1.10;;;24.10;97.70;;;;;;20846836;28;20028;-80
2021/05/28 15:34:24;;;;;;;;;;;23.60;99.90;;;;;;20848635;28;20036;-79
2021/05/28 15:44:25;;;;;;;1.90;1.20;;;23.40;99.90;;;;;;20814298;28;19959;-79
2021/05/28 15:54:26;;;;;;;1.37;1.10;;;23.60;98.20;;;;;;20844030;28;20404;-79
2021/05/28 16:04:29;;;;;;;6.82;1.05;;;23.30;99.10;;;;;;20831421;28;20045;-78
2021/05/28 16:14:29;;;;;;;1.80;1.08;;;22.90;99.90;;;;;;20850419;28;20053;-80
2021/05/28 16:24:30;;;;;;;1.23;0.90;;;22.60;99.90;;;;;;20831063;28;20059;-80
2021/05/28 16:34:31;;;;;;;2.33;1.00;;;22.60;99.90;;;;;;20831801;28;20029;-80
2021/05/28 16:44:32;;;;;;;1.07;0.90;;;22.50;99.90;;;;;;20846996;28;20041;-80
2021/05/28 16:54:33;;;;;;;1.53;0.80;;;22.10;99.50;;;;;;20827703;28;20048;-80
2021/05/28 17:04:34;;;;;;;1.77;1.00;;;22.00;99.50;;;;;;20812164;28;20060;-78
2021/05/28 17:14:35;;;;;;;2.00;0.90;;;22.10;99.90;;;;;;20848099;28;20557;-81
2021/05/28 17:24:35;;;;;;;3.23;1.00;;;21.70;99.90;;;;;;20833008;28;20029;-79
2021/05/28 17:34:36;;;;;;;5.70;2.53;;;21.50;99.90;;;;;;20851558;28;20037;-79
2021/05/28 17:44:37;;;;;;;5.60;1.00;;;21.70;99.90;;;;;;20788733;28;20053;-79
2021/05/28 17:54:38;;;;;;;5.93;1.20;;;21.80;99.80;;;;;;20755240;28;20034;-78
2021/05/28 18:04:39;;;;;;;2.00;1.27;;;23.00;98.70;;;;;;20757582;28;20480;-78
2021/05/28 18:14:40;;;;;;;3.43;0.80;;;24.00;99.10;;;;;;20790993;28;20046;-78
2021/05/28 18:24:42;;;;;;;4.43;0.90;;;23.60;98.40;;;;;;20757717;28;20041;-80
2021/05/28 18:34:43;;;;;;;2.78;1.20;;;22.80;99.90;;;;;;20833600;28;20034;-80
2021/05/28 18:44:44;;;;;;;4.77;1.30;;;20.70;99.90;;;;;;20800402;28;20040;-80
2021/05/28 18:54:44;;;;;;;2.87;2.07;;;19.90;99.90;;;;;;20784051;28;20033;-79
2021/05/28 19:04:45;;;;;;;2.43;1.40;;;18.80;99.90;;;;;;20786248;28;20034;-79
2021/05/28 19:14:46;;;;;;;3.97;1.60;;;18.80;99.90;;;;;;20754326;28;20038;-79
2021/05/28 19:24:47;;;;;;;3.60;1.80;;;18.40;99.90;;;;;;20819450;28;20481;-80
2021/05/28 19:34:48;;;;;;;3.23;1.87;;;16.90;99.90;;;;;;20788292;28;20037;-78
2021/05/28 19:44:50;;;;;;;3.80;1.90;;;17.70;99.90;;;;;;20808645;28;20053;-79
2021/05/28 20:05:13;;;;;;;3.25;1.80;;;17.30;99.90;;;;;;20815929;28;20522;-79
2021/05/28 20:15:14;;;;;;;2.67;1.73;;;16.90;99.90;;;;;;20825716;28;20033;-79
2021/05/28 20:25:16;;;;;;;3.67;2.20;;;16.70;99.90;;;;;;20839464;28;20036;-79
2021/05/28 20:35:17;;;;;;;3.60;2.10;;;16.60;99.90;;;;;;20824977;28;20025;-80
2021/05/28 20:45:18;;;;;;;3.80;1.92;;;16.10;99.90;;;;;;20825064;28;20041;-79
2021/05/28 20:55:27;;;;;;;3.40;2.33;;;16.10;99.90;;;;;;20826976;28;20104;-78
2021/05/28 21:05:28;;;;;;;4.65;2.40;;;16.00;99.90;;;;;;20812943;28;20076;-79
2021/05/28 21:15:31;;;;;;;2.57;2.17;;;15.70;99.90;;;;;;20786218;28;20519;-79
2021/05/28 21:25:34;;;;;;;3.30;2.10;;;15.60;99.90;;;;;;20789879;28;20109;-79
2021/05/28 21:35:35;;;;;;;4.00;2.10;;;15.60;99.90;;;;;;20789249;28;20064;-78
2021/05/28 21:45:36;;;;;;;5.43;2.30;;;15.40;99.90;;;;;;20823429;28;20048;-80
2021/05/28 21:55:37;;;;;;;3.23;2.20;;;15.20;99.90;;;;;;20798299;28;20061;-78
2021/05/28 22:05:38;;;;;;;2.20;1.53;;;15.00;99.90;;;;;;20811474;28;20469;-80
2021/05/28 22:15:39;;;;;;;4.78;2.35;;;15.00;99.90;;;;;;20771318;28;20034;-79
2021/05/28 22:25:41;;;;;;;5.90;2.20;;;15.00;99.90;;;;;;20747063;28;20105;-78
2021/05/28 22:35:42;;;;;;;3.15;1.85;;;14.80;99.90;;;;;;20800139;28;20076;-77
2021/05/28 22:56:03;;;;;;;3.58;2.13;;;14.70;99.90;;;;;;20801202;28;20061;-78
2021/05/28 23:06:09;;;;;;;4.10;2.40;;;14.70;99.90;;;;;;20816285;28;20025;-78
2021/05/28 23:16:10;;;;;;;3.55;2.10;;;14.50;99.90;;;;;;20787464;28;20100;-78
2021/05/28 23:26:11;;;;;;;2.70;1.98;;;14.30;99.90;;;;;;20793128;28;20029;-79
2021/05/28 23:36:12;;;;;;;4.15;2.00;;;14.30;99.90;;;;;;20766120;28;20413;-78
2021/05/28 23:46:14;;;;;;;4.03;2.27;;;14.20;99.90;;;;;;20744281;28;20092;-77
2021/05/28 23:56:15;;;;;;;3.60;2.13;;;14.10;99.90;;;;;;20761390;28;20331;-78
